KMVY

Martha's Vineyard Airport

Vineyard Haven, Massachusetts, USA
METAR KMVY 201907Z AUTO 25008G15KT 10SM SCT023 16/12 A2959 RMK AO2 T01560117
Observed Flight Rules
Oct-20 @ 19:07 UTC (19 minutes ago) Visual Flight Rules
Wind Visibility Clouds
250° at 8 knots
 Gusting to 15 knots
10 miles
  • Scattered at 2,300' AGL
Temperatures Readings
Current 16°C / 61°F
Dewpoint 12°C / 54°F
Humidity 77%
Altimeter 29.59" Hg
Pressure 1002 hPa
Elevation 16
METAR KMVY 201907Z AUTO 25008G15KT 10SM SCT023 16/12 A2959 RMK AO2 T01560117
Observed Flight Rules
Oct-20 @ 19:07 UTC
(19 minutes ago)
VFR
Wind Visibility
250° at 8 knots
 Gusting to 15 knots
10 miles
Clouds
  • Scattered at 2,300' AGL
Temperature Dewpoint
16°C / 61°F 12°C / 54°F
Humidity Altimeter Pressure
77% 29.59" Hg 1002 hPa